Terminal Aerodrome Forecast
Issued by NWS

Home | Current Version | Previous Version | Text Only | Print | Product List | Glossary On
Versions: 1 2 3 4 5 6 7 8 9 10 11 12 13 14 15 16
000
FTUS45 KGJT 260547
TAFEGE
TAF
KEGE 260547Z 2606/2706 VRB03KT P6SM VCSH BKN070
     FM261200 00000KT P6SM OVC100
     FM261900 24009G19KT P6SM VCTS BKN150CB
     FM270400 09004KT P6SM BKN150=

USA.gov is the U.S. government's official web portal to all federal, state and local government web resources and services.